createdAt,value
2023-03-13T03:28:51.973Z,7.60
2023-03-13T03:31:18.842Z,6.20
2023-03-13T03:33:48.307Z,6.80
2023-03-13T03:36:20.642Z,7.10
2023-03-13T03:38:47.865Z,7.20
2023-03-13T03:41:18.471Z,7.60
2023-03-13T03:43:49.896Z,8.30
2023-03-13T03:46:21.523Z,8.00
2023-03-13T03:48:51.006Z,7.40
2023-03-13T03:51:21.728Z,7.20
2023-03-13T03:53:48.287Z,7.60
2023-03-13T03:56:17.776Z,8.00
2023-03-13T03:58:47.915Z,8.00
2023-03-13T04:01:28.454Z,7.40
2023-03-13T04:03:57.644Z,7.60
2023-03-13T04:06:29.014Z,6.60
2023-03-13T04:08:56.012Z,7.10
2023-03-13T04:11:31.508Z,7.30
2023-03-13T04:14:02.932Z,7.40
2023-03-13T04:16:32.178Z,6.50
2023-03-13T04:19:01.731Z,6.60
2023-03-13T04:21:30.772Z,7.50
2023-03-13T04:24:04.903Z,7.60
2023-03-13T04:26:32.780Z,7.00
2023-03-13T04:28:59.470Z,7.40
2023-03-13T04:31:47.210Z,6.90
2023-03-13T04:34:37.768Z,7.30
2023-03-13T04:37:39.489Z,6.60
2023-03-13T04:40:26.371Z,7.30
2023-03-13T04:43:15.722Z,7.30
2023-03-13T04:46:17.954Z,6.80
2023-03-13T04:49:03.010Z,7.40
2023-03-13T04:51:40.824Z,7.20
2023-03-13T04:54:17.594Z,8.00
2023-03-13T04:57:02.280Z,6.80
2023-03-13T04:59:40.422Z,7.50
2023-03-13T05:02:09.444Z,7.40
2023-03-13T05:05:01.564Z,7.50
2023-03-13T05:07:46.341Z,7.10
2023-03-13T05:10:41.213Z,7.40
2023-03-13T05:13:26.314Z,6.80
2023-03-13T05:16:02.188Z,7.30
2023-03-13T05:18:55.999Z,7.40
2023-03-13T05:21:43.510Z,7.70
2023-03-13T05:24:24.340Z,8.40
2023-03-13T05:27:09.855Z,7.00
2023-03-13T05:29:48.078Z,7.70
2023-03-13T05:32:32.624Z,8.20
2023-03-13T05:35:22.672Z,7.80
2023-03-13T05:38:09.780Z,7.60
2023-03-13T05:40:51.294Z,8.20
2023-03-13T05:43:50.421Z,8.20
2023-03-13T05:46:30.368Z,7.70
2023-03-13T05:49:15.714Z,8.00
2023-03-13T05:52:14.598Z,8.20
2023-03-13T05:54:48.800Z,7.90
2023-03-13T05:57:28.464Z,8.20
2023-03-13T06:00:01.923Z,8.00
2023-03-13T06:02:43.404Z,8.70
2023-03-13T06:05:18.616Z,8.50
2023-03-13T06:07:46.311Z,8.90
2023-03-13T06:10:15.066Z,7.90
2023-03-13T06:12:41.807Z,8.50
2023-03-13T06:15:13.475Z,7.50
2023-03-13T06:18:01.365Z,8.80
2023-03-13T06:20:32.848Z,8.10
2023-03-13T06:22:59.493Z,8.40
2023-03-13T06:25:28.720Z,9.40
2023-03-13T06:27:57.331Z,9.10
2023-03-13T06:30:24.116Z,9.30
2023-03-13T06:32:53.596Z,9.30
2023-03-13T06:35:20.276Z,8.30
2023-03-13T06:37:52.698Z,8.90
2023-03-13T06:40:20.397Z,8.90
2023-03-13T06:42:49.381Z,9.00
2023-03-13T06:45:16.048Z,8.60
2023-03-13T06:47:45.151Z,9.20
2023-03-13T06:50:11.693Z,8.90
2023-03-13T06:52:44.234Z,8.60
2023-03-13T06:55:15.804Z,8.80
2023-03-13T06:57:42.538Z,8.70
2023-03-13T07:00:11.989Z,7.90
2023-03-13T07:02:43.359Z,9.00
2023-03-13T07:05:15.933Z,9.20
2023-03-13T07:07:44.822Z,8.70
2023-03-13T07:10:18.154Z,8.70
2023-03-13T07:12:44.716Z,9.10
2023-03-13T07:15:15.886Z,9.40
2023-03-13T07:17:43.018Z,8.90
2023-03-13T07:20:12.350Z,8.60
2023-03-13T07:22:41.673Z,8.40
2023-03-13T07:25:09.106Z,8.90
2023-03-13T07:27:37.918Z,9.90
2023-03-13T07:30:05.072Z,8.50
2023-03-13T07:32:32.627Z,7.90
2023-03-13T07:35:03.758Z,8.20
2023-03-13T07:37:30.285Z,7.70
2023-03-13T07:39:58.565Z,8.90
2023-03-13T07:42:26.300Z,9.30
2023-03-13T07:44:58.573Z,8.80
2023-03-13T07:47:25.090Z,8.40
2023-03-13T07:49:54.281Z,8.60
2023-03-13T07:52:23.285Z,9.50
2023-03-13T07:54:54.571Z,8.90
2023-03-13T07:57:25.563Z,8.60
2023-03-13T07:59:54.392Z,9.10
2023-03-13T08:02:25.730Z,9.10
2023-03-13T08:04:54.701Z,8.80
2023-03-13T08:07:26.792Z,9.50
2023-03-13T08:09:59.288Z,7.80
2023-03-13T08:12:28.430Z,7.90
2023-03-13T08:14:59.858Z,8.60
2023-03-13T08:17:31.980Z,8.80
2023-03-13T08:20:00.824Z,8.10
2023-03-13T08:22:27.391Z,8.90
2023-03-13T08:24:54.347Z,8.10
2023-03-13T08:27:23.310Z,8.50
2023-03-13T08:29:49.721Z,7.50
2023-03-13T08:32:22.481Z,8.10
2023-03-13T08:34:49.089Z,8.10
2023-03-13T08:37:19.016Z,6.90
2023-03-13T08:39:49.428Z,7.30
2023-03-13T08:42:17.983Z,6.80
2023-03-13T08:44:47.032Z,7.10
2023-03-13T08:47:21.407Z,7.10
2023-03-13T08:49:48.224Z,6.60
2023-03-13T08:52:15.021Z,7.00
2023-03-13T08:54:44.271Z,7.20
2023-03-13T08:57:17.145Z,7.10
2023-03-13T08:59:44.763Z,6.30
2023-03-13T09:02:19.380Z,7.10
2023-03-13T09:04:58.132Z,6.10
2023-03-13T09:07:25.224Z,7.60
2023-03-13T09:09:52.560Z,7.40
2023-03-13T09:12:30.368Z,7.10
2023-03-13T09:14:57.710Z,6.60
2023-03-13T09:17:25.996Z,5.90
2023-03-13T09:20:00.492Z,6.70
2023-03-13T09:29:46.749Z,5.80
2023-03-13T09:32:13.549Z,6.00
2023-03-13T09:34:45.466Z,6.00
2023-03-13T09:37:19.988Z,5.60
2023-03-13T09:39:57.395Z,5.10
2023-03-13T09:42:59.869Z,5.30
2023-03-13T09:45:46.799Z,5.20
2023-03-13T09:48:36.275Z,5.10
2023-03-13T09:51:11.401Z,5.90
2023-03-13T09:53:49.849Z,5.30
2023-03-13T09:56:31.380Z,4.90
2023-03-13T09:59:24.304Z,5.20
2023-03-13T10:02:00.023Z,4.80
2023-03-13T10:04:29.218Z,4.90
2023-03-13T10:06:58.874Z,5.10
2023-03-13T10:09:32.925Z,5.10
2023-03-13T10:12:15.159Z,4.90
2023-03-13T10:15:20.115Z,4.60
2023-03-13T10:17:58.125Z,4.80
2023-03-13T10:20:35.969Z,4.40
2023-03-13T10:23:19.127Z,4.80
2023-03-13T10:25:48.796Z,4.20
2023-03-13T10:28:22.157Z,4.30
2023-03-13T10:30:53.681Z,4.40
2023-03-13T10:33:27.709Z,4.60
2023-03-13T10:36:14.653Z,4.70
2023-03-13T10:38:54.189Z,5.00
2023-03-13T10:41:35.923Z,4.20
2023-03-13T10:44:17.322Z,4.60
2023-03-13T10:46:47.137Z,3.90
2023-03-13T10:49:23.510Z,3.90
2023-03-13T10:51:56.045Z,3.80
2023-03-13T10:54:25.698Z,4.10
2023-03-13T10:57:08.764Z,4.30
2023-03-13T10:59:45.669Z,4.40
2023-03-13T11:02:38.963Z,3.90
2023-03-13T11:05:47.976Z,4.00
2023-03-13T11:08:18.033Z,3.60
2023-03-13T11:10:52.449Z,3.90
2023-03-13T11:13:42.366Z,4.00
2023-03-13T11:16:22.392Z,3.80
2023-03-13T11:19:12.277Z,4.00
2023-03-13T11:22:00.616Z,4.00
2023-03-13T11:24:48.143Z,4.50
2023-03-13T11:27:22.426Z,4.00
2023-03-13T11:30:05.855Z,3.30
2023-03-13T11:32:47.019Z,3.70
2023-03-13T11:35:42.170Z,3.90
2023-03-13T11:38:39.175Z,3.90
2023-03-13T11:41:17.216Z,4.40
2023-03-13T11:44:11.201Z,3.80
2023-03-13T11:46:52.654Z,3.70
2023-03-13T11:49:49.982Z,4.10
2023-03-13T11:52:36.598Z,3.00
2023-03-13T11:55:30.884Z,3.80
2023-03-13T11:58:15.980Z,4.20
2023-03-13T12:01:05.553Z,3.70
2023-03-13T12:03:53.796Z,4.40
2023-03-13T12:06:31.806Z,4.60
2023-03-13T12:09:32.651Z,4.10
2023-03-13T12:12:23.027Z,4.10
2023-03-13T12:15:04.177Z,3.80
2023-03-13T12:17:36.175Z,4.50
2023-03-13T12:20:23.472Z,4.90
2023-03-13T12:23:23.493Z,3.70
2023-03-13T12:25:57.900Z,4.20
2023-03-13T12:28:33.448Z,3.50
2023-03-13T12:31:08.454Z,3.50
2023-03-13T12:33:47.469Z,4.00
2023-03-13T12:36:28.684Z,3.90
2023-03-13T12:39:19.822Z,4.80
2023-03-13T12:42:21.428Z,3.90
2023-03-13T12:44:48.025Z,4.20
2023-03-13T12:48:15.152Z,4.40
2023-03-13T12:50:53.755Z,4.20
2023-03-13T12:53:46.922Z,3.80
2023-03-13T12:56:51.281Z,3.80
2023-03-13T12:59:43.409Z,4.30
2023-03-13T13:02:28.125Z,4.10
2023-03-13T13:05:00.513Z,4.40
2023-03-13T13:07:36.002Z,3.60
2023-03-13T13:46:01.947Z,3.60
2023-03-13T13:48:35.075Z,4.10
2023-03-13T13:51:11.075Z,3.80
2023-03-13T13:53:46.358Z,3.20
2023-03-13T13:56:30.683Z,3.70
2023-03-13T13:59:24.791Z,3.30
2023-03-13T14:02:03.625Z,3.50
2023-03-13T14:04:35.326Z,3.30
2023-03-13T14:07:08.241Z,3.90
2023-03-13T14:09:42.972Z,3.70
2023-03-13T14:12:29.392Z,3.30
2023-03-13T14:15:32.817Z,3.20
2023-03-13T14:18:15.499Z,3.50
2023-03-13T14:20:57.552Z,4.70
2023-03-13T14:23:32.177Z,4.20
2023-03-13T14:26:11.504Z,3.40
2023-03-13T14:28:42.702Z,3.70
2023-03-13T14:31:37.180Z,3.60
2023-03-13T14:34:13.206Z,4.20
2023-03-13T14:36:49.381Z,4.20
2023-03-13T14:39:36.118Z,4.20
2023-03-13T14:42:12.916Z,3.90
2023-03-13T14:44:42.346Z,4.20
2023-03-13T14:47:32.073Z,4.00
2023-03-13T14:50:07.098Z,4.20
2023-03-13T14:52:34.095Z,3.90
2023-03-13T14:55:25.929Z,4.60
2023-03-13T14:58:06.561Z,4.20
2023-03-13T15:00:38.495Z,3.70
2023-03-13T15:03:18.474Z,3.50
2023-03-13T15:06:01.855Z,4.30
2023-03-13T15:08:31.909Z,4.50
2023-03-13T15:11:01.515Z,4.60
2023-03-13T15:13:36.021Z,4.70
2023-03-13T15:16:14.095Z,3.90
2023-03-13T15:18:40.822Z,4.10
2023-03-13T15:21:10.203Z,4.20
2023-03-13T15:23:42.544Z,4.20
2023-03-13T15:26:10.060Z,4.00
2023-03-13T15:28:36.536Z,3.80
2023-03-13T15:31:05.657Z,4.90
2023-03-13T15:33:36.241Z,4.60
2023-03-13T15:36:03.458Z,4.80
2023-03-13T15:38:30.024Z,4.20
2023-03-13T15:41:04.521Z,4.50
2023-03-13T15:43:33.694Z,3.60
2023-03-13T15:46:05.526Z,4.30
2023-03-13T15:48:32.961Z,4.40
2023-03-13T15:51:04.695Z,4.30
2023-03-13T15:53:35.221Z,4.40
2023-03-13T15:56:10.084Z,5.00
2023-03-13T15:58:41.142Z,4.80
2023-03-13T16:01:13.905Z,4.80
2023-03-13T16:06:29.058Z,5.40
2023-03-13T16:09:01.544Z,5.10
2023-03-13T16:11:29.287Z,5.40
2023-03-13T16:13:58.316Z,5.20
2023-03-13T16:16:29.001Z,5.00
2023-03-13T16:18:58.625Z,4.60
2023-03-13T16:21:33.900Z,4.80
2023-03-13T16:24:02.782Z,4.40
2023-03-13T16:26:31.173Z,4.60
2023-03-13T16:29:01.053Z,4.10
2023-03-13T16:31:35.718Z,5.10
2023-03-13T16:34:10.874Z,4.70
2023-03-13T16:36:42.334Z,4.50
2023-03-13T16:39:15.350Z,4.40
2023-03-13T16:41:44.247Z,4.50
2023-03-13T16:44:13.308Z,4.40
2023-03-13T16:46:55.544Z,4.50
2023-03-13T16:49:32.909Z,4.20
2023-03-13T16:52:00.004Z,4.10
2023-03-13T16:54:26.861Z,4.20
2023-03-13T16:56:53.518Z,4.80
2023-03-13T16:59:20.893Z,4.30
2023-03-13T17:01:55.163Z,4.80
2023-03-13T17:04:24.652Z,4.50
2023-03-13T17:06:53.905Z,4.80
2023-03-13T17:09:22.863Z,4.70
2023-03-13T17:11:49.812Z,4.30
2023-03-13T17:14:19.220Z,4.70
2023-03-13T17:16:48.467Z,4.70
2023-03-13T17:19:16.283Z,5.40
2023-03-13T17:21:45.338Z,5.40
2023-03-13T17:24:16.674Z,5.50
2023-03-13T17:26:43.481Z,4.90
2023-03-13T17:29:16.328Z,4.90
2023-03-13T17:31:46.255Z,4.40
2023-03-13T17:34:17.327Z,4.70
2023-03-13T17:36:48.180Z,5.10
2023-03-13T17:39:15.500Z,5.00
2023-03-13T17:41:42.273Z,4.30
2023-03-13T17:44:11.617Z,4.70
2023-03-13T17:46:46.422Z,5.10
2023-03-13T17:49:15.442Z,4.90
2023-03-13T17:51:45.664Z,5.80
2023-03-13T17:54:15.612Z,5.10
2023-03-13T17:56:42.794Z,5.20
2023-03-13T17:59:18.936Z,5.00
2023-03-13T18:01:48.340Z,4.90
2023-03-13T18:04:15.024Z,5.00
2023-03-13T18:06:50.176Z,5.40
2023-03-13T18:09:20.046Z,5.30
2023-03-13T18:11:52.053Z,5.00
2023-03-13T18:14:19.238Z,5.30
2023-03-13T18:16:51.569Z,4.60
2023-03-13T18:19:22.795Z,5.60
2023-03-13T18:21:53.354Z,5.60
2023-03-13T18:24:20.859Z,5.30
2023-03-13T18:26:48.491Z,5.00
2023-03-13T18:29:28.523Z,4.90
2023-03-13T18:32:00.163Z,5.10
2023-03-13T18:34:27.830Z,5.10
2023-03-13T18:37:03.270Z,5.30
2023-03-13T18:39:40.341Z,5.40
2023-03-13T18:42:07.520Z,5.60
2023-03-13T18:44:34.164Z,5.10
2023-03-13T18:47:01.196Z,5.10
2023-03-13T18:49:29.547Z,5.10
2023-03-13T18:52:02.001Z,4.90
2023-03-13T18:54:32.179Z,5.00
2023-03-13T18:57:03.792Z,5.40
2023-03-13T18:59:34.177Z,4.90
2023-03-13T19:02:06.429Z,5.00
2023-03-13T19:04:35.607Z,5.90
2023-03-13T19:07:12.382Z,5.90
2023-03-13T19:09:46.422Z,5.90
2023-03-13T19:12:18.453Z,5.90
2023-03-13T19:14:50.046Z,5.60
2023-03-13T19:17:28.865Z,5.50
2023-03-13T19:20:04.056Z,5.60
2023-03-13T19:22:35.854Z,5.50
2023-03-13T19:25:02.466Z,5.20
2023-03-13T19:27:36.418Z,4.70
2023-03-13T19:30:05.858Z,5.70
2023-03-13T19:32:33.084Z,5.90
2023-03-13T19:34:59.844Z,5.70
2023-03-13T19:37:26.935Z,5.30
2023-03-13T19:39:53.731Z,5.50
2023-03-13T19:42:22.661Z,5.00
2023-03-13T19:44:51.782Z,4.90
2023-03-13T19:47:18.239Z,5.20
2023-03-13T19:49:49.077Z,5.50
2023-03-13T19:52:15.629Z,4.90
2023-03-13T19:54:45.086Z,4.60
2023-03-13T19:57:14.113Z,5.40
2023-03-13T19:59:41.117Z,5.30
2023-03-13T20:02:09.388Z,4.90
2023-03-13T20:04:40.390Z,5.10
2023-03-13T20:07:11.685Z,5.20
2023-03-13T20:09:40.776Z,4.90
2023-03-13T20:12:09.145Z,5.10
2023-03-13T20:14:37.282Z,5.20
2023-03-13T20:17:06.498Z,5.10
2023-03-13T20:19:35.580Z,5.30
2023-03-13T20:22:09.062Z,5.20
2023-03-13T20:24:38.703Z,4.90
2023-03-13T20:27:05.100Z,5.10
2023-03-13T20:29:40.909Z,4.70
2023-03-13T20:32:07.734Z,4.90
2023-03-13T20:34:39.778Z,4.60
2023-03-13T20:37:11.968Z,4.50
2023-03-13T20:39:44.341Z,4.40
2023-03-13T20:42:15.714Z,4.50
2023-03-13T20:44:42.496Z,4.10
2023-03-13T20:47:09.295Z,5.00
2023-03-13T20:49:40.809Z,4.60
2023-03-13T20:52:09.363Z,4.60
2023-03-13T20:54:40.439Z,5.20
2023-03-13T20:57:09.702Z,4.50
2023-03-13T20:59:45.971Z,4.40
2023-03-13T21:02:15.086Z,4.40
2023-03-13T21:04:42.187Z,4.30
2023-03-13T21:07:13.780Z,4.30
2023-03-13T21:10:00.836Z,4.70
2023-03-13T21:12:28.493Z,4.10
2023-03-13T21:14:58.354Z,4.80
2023-03-13T21:17:29.974Z,4.70
2023-03-13T21:20:01.356Z,5.40
2023-03-13T21:22:31.033Z,5.00
2023-03-13T21:24:57.853Z,4.60
2023-03-13T21:27:26.466Z,4.60
2023-03-13T21:29:58.287Z,5.00
2023-03-13T21:32:27.666Z,4.50
2023-03-13T21:34:54.629Z,5.00
2023-03-13T21:37:22.942Z,4.20
2023-03-13T21:39:53.802Z,4.80
2023-03-13T21:42:20.265Z,5.20
2023-03-13T21:44:49.629Z,4.60
2023-03-13T21:47:26.186Z,4.00
2023-03-13T21:49:54.059Z,4.60
2023-03-13T21:52:22.239Z,4.00
2023-03-13T21:54:49.070Z,4.10
2023-03-13T21:57:18.092Z,4.20
2023-03-13T21:59:44.633Z,3.90
2023-03-13T22:02:12.499Z,4.20
2023-03-13T22:04:44.334Z,4.00
2023-03-13T22:07:15.524Z,4.10
2023-03-13T22:09:44.392Z,4.10
2023-03-13T22:12:11.065Z,3.70
2023-03-13T22:14:39.831Z,4.00
2023-03-13T22:17:16.046Z,4.20
2023-03-13T22:19:45.181Z,3.90
2023-03-13T22:22:16.732Z,3.90
2023-03-13T22:24:45.691Z,3.90
2023-03-13T22:27:19.476Z,3.50
2023-03-13T22:29:48.581Z,4.00
2023-03-13T22:32:17.985Z,3.60
2023-03-13T22:34:46.501Z,4.00
2023-03-13T22:37:21.574Z,3.80
2023-03-13T22:42:23.679Z,3.70
2023-03-13T22:44:50.150Z,3.60
2023-03-13T22:47:16.703Z,3.70
2023-03-13T22:49:45.574Z,4.00
2023-03-13T22:52:16.639Z,3.20
2023-03-13T22:54:48.452Z,3.60
2023-03-13T22:57:17.435Z,4.00
2023-03-13T22:59:48.598Z,3.30
2023-03-13T23:02:15.094Z,3.80
2023-03-13T23:04:43.945Z,3.70
2023-03-13T23:07:15.233Z,3.50
2023-03-13T23:09:47.416Z,3.30
2023-03-13T23:12:18.678Z,3.80
2023-03-13T23:14:47.465Z,3.50
2023-03-13T23:17:19.105Z,3.50
2023-03-13T23:19:50.358Z,4.00
2023-03-13T23:22:21.115Z,3.60
2023-03-13T23:24:55.081Z,3.60
2023-03-13T23:27:21.532Z,4.00
2023-03-13T23:29:53.556Z,3.20
2023-03-13T23:32:22.564Z,3.80
2023-03-13T23:34:51.488Z,3.70
2023-03-13T23:37:21.088Z,3.90
2023-03-13T23:39:50.060Z,3.80
2023-03-13T23:42:16.680Z,3.20
2023-03-13T23:44:45.714Z,3.40
2023-03-13T23:47:13.088Z,3.40
2023-03-13T23:49:39.845Z,3.20
2023-03-13T23:52:08.757Z,3.80
2023-03-13T23:54:40.044Z,3.00
2023-03-13T23:57:06.625Z,3.00
2023-03-13T23:59:35.700Z,2.70
